Time;durP1;ratioP1;P1;durP2;ratioP2;P2;SDS_P1;SDS_P2;PMS_P1;PMS_P2;Temp;Humidity;BMP_temperature;BMP_pressure;BME280_temperature;BME280_humidity;BME280_pressure;Samples;Min_cycle;Max_cycle;Signal;HPM_P1;HPM_P2
2022/10/05 00:01:19;;;;;;;1.50;1.20;;;13.60;99.90;;;;;;5010596;28;20057;-86
2022/10/05 00:03:45;;;;;;;1.40;1.13;;;13.60;99.90;;;;;;5010513;28;20049;-87
2022/10/05 00:06:11;;;;;;;1.45;1.23;;;13.70;99.90;;;;;;5012356;28;20015;-87
2022/10/05 00:08:37;;;;;;;1.60;1.27;;;13.70;99.90;;;;;;5012608;28;20026;-86
2022/10/05 00:11:07;;;;;;;1.42;1.10;;;13.70;99.90;;;;;;5027380;28;20144;-86
2022/10/05 00:13:33;;;;;;;1.17;1.08;;;13.60;99.90;;;;;;5012106;28;20073;-86
2022/10/05 00:16:08;;;;;;;1.10;1.05;;;13.60;99.90;;;;;;5023842;28;20053;-86
2022/10/05 00:18:34;;;;;;;2.03;1.45;;;13.50;99.90;;;;;;5012321;28;20227;-86
2022/10/05 00:20:59;;;;;;;1.38;1.13;;;13.40;99.90;;;;;;5012257;28;20050;-86
2022/10/05 00:23:31;;;;;;;1.77;1.25;;;13.30;99.90;;;;;;5012989;28;20026;-86
2022/10/05 00:26:15;;;;;;;1.40;1.17;;;13.40;99.90;;;;;;5012369;28;20075;-86
2022/10/05 00:28:41;;;;;;;1.27;1.17;;;13.50;99.90;;;;;;5013011;28;20021;-86
2022/10/05 00:31:18;;;;;;;2.20;1.05;;;13.60;99.90;;;;;;5011458;28;20388;-86
2022/10/05 00:33:44;;;;;;;1.40;1.10;;;13.60;99.90;;;;;;5012496;28;20432;-86
2022/10/05 00:36:10;;;;;;;1.63;1.10;;;13.30;99.90;;;;;;5012372;28;20084;-87
2022/10/05 00:38:36;;;;;;;1.27;1.17;;;13.10;99.90;;;;;;5011974;28;20034;-87
2022/10/05 00:41:14;;;;;;;1.00;1.00;;;13.00;99.90;;;;;;5027425;28;20037;-87
2022/10/05 00:44:06;;;;;;;1.20;1.10;;;13.20;99.90;;;;;;5027904;28;20040;-87
2022/10/05 00:46:31;;;;;;;1.42;1.00;;;13.30;99.90;;;;;;5012104;28;20025;-87
2022/10/05 00:49:11;;;;;;;1.83;1.05;;;13.20;99.90;;;;;;5012734;28;20029;-88
2022/10/05 00:51:40;;;;;;;1.13;0.90;;;13.20;99.90;;;;;;5012824;28;20030;-87
2022/10/05 00:54:11;;;;;;;1.42;1.33;;;13.10;99.90;;;;;;5012934;28;20044;-87
2022/10/05 00:57:12;;;;;;;1.05;1.05;;;13.20;99.90;;;;;;5012868;28;20026;-87
2022/10/05 00:59:45;;;;;;;1.30;1.20;;;13.20;99.90;;;;;;5012081;28;20051;-87
2022/10/05 01:02:55;;;;;;;1.40;1.10;;;13.30;99.90;;;;;;4999632;28;20036;-87
2022/10/05 01:05:49;;;;;;;1.40;1.30;;;13.20;99.90;;;;;;4989251;28;20078;-86
2022/10/05 01:08:42;;;;;;;1.23;1.13;;;12.90;99.90;;;;;;4986841;28;20069;-87
2022/10/05 01:11:33;;;;;;;1.23;1.13;;;13.20;99.90;;;;;;4989012;28;20030;-87
2022/10/05 01:14:20;;;;;;;2.72;1.20;;;13.20;99.90;;;;;;4989555;28;20751;-86
2022/10/05 01:16:56;;;;;;;1.38;1.00;;;13.00;99.90;;;;;;4989302;28;20057;-85
2022/10/05 01:19:40;;;;;;;1.50;1.40;;;12.80;99.90;;;;;;4988633;28;20053;-86
2022/10/05 01:22:15;;;;;;;1.40;1.30;;;12.70;99.90;;;;;;5005436;28;20046;-87
2022/10/05 01:24:41;;;;;;;2.97;1.25;;;12.90;99.90;;;;;;4973066;28;20049;-87
2022/10/05 01:27:20;;;;;;;1.20;1.10;;;12.90;99.90;;;;;;4988905;28;20495;-87
2022/10/05 01:29:57;;;;;;;1.27;1.17;;;12.90;99.90;;;;;;4989145;28;20165;-87
2022/10/05 01:32:44;;;;;;;1.80;1.30;;;13.00;99.90;;;;;;4989025;28;20213;-87
2022/10/05 01:35:34;;;;;;;1.35;1.10;;;12.90;99.90;;;;;;4988913;28;20088;-87
2022/10/05 01:38:18;;;;;;;1.55;1.30;;;13.10;99.90;;;;;;4975260;28;20050;-86
2022/10/05 01:40:53;;;;;;;2.05;1.20;;;13.10;99.90;;;;;;4989265;28;20030;-86
2022/10/05 01:43:32;;;;;;;1.90;1.10;;;12.90;99.90;;;;;;5028270;28;20025;-87
2022/10/05 01:46:25;;;;;;;1.30;1.20;;;12.80;99.90;;;;;;5013021;28;20153;-87
2022/10/05 01:48:59;;;;;;;1.15;1.05;;;12.80;99.90;;;;;;5015038;28;20030;-87
2022/10/05 01:51:38;;;;;;;1.15;1.13;;;12.90;99.90;;;;;;5029673;28;20525;-87
2022/10/05 01:54:31;;;;;;;1.27;1.10;;;12.80;99.90;;;;;;5014715;28;20030;-87
2022/10/05 01:57:15;;;;;;;1.48;1.38;;;12.70;99.90;;;;;;5030014;28;20021;-87
2022/10/05 01:59:47;;;;;;;1.48;1.38;;;12.80;99.90;;;;;;5014062;28;20060;-87
2022/10/05 02:02:16;;;;;;;1.33;1.23;;;12.80;99.90;;;;;;5014785;28;20625;-87
2022/10/05 02:04:54;;;;;;;1.52;1.17;;;12.80;99.90;;;;;;5014562;28;20026;-87
2022/10/05 02:07:28;;;;;;;1.40;1.30;;;12.60;99.90;;;;;;5014196;28;20029;-87
2022/10/05 02:10:01;;;;;;;1.30;1.20;;;12.60;99.90;;;;;;5014206;28;20030;-87
2022/10/05 02:12:31;;;;;;;1.20;1.20;;;12.70;99.90;;;;;;5029840;28;20033;-86
2022/10/05 02:15:06;;;;;;;3.40;1.33;;;12.70;99.90;;;;;;5013136;28;20037;-87
2022/10/05 02:17:38;;;;;;;1.40;1.30;;;12.70;99.90;;;;;;5013816;28;20021;-86
2022/10/05 02:20:10;;;;;;;1.13;1.02;;;12.70;99.90;;;;;;5013865;28;20037;-87
2022/10/05 02:22:42;;;;;;;1.15;1.05;;;12.70;99.90;;;;;;5013936;28;20046;-86
2022/10/05 02:25:16;;;;;;;1.80;1.23;;;12.70;99.90;;;;;;5013551;28;20034;-86
2022/10/05 02:27:52;;;;;;;1.00;0.95;;;12.40;99.90;;;;;;5013309;28;20033;-86
2022/10/05 02:30:18;;;;;;;1.60;1.30;;;12.40;99.90;;;;;;5014051;28;20028;-86
2022/10/05 02:33:00;;;;;;;1.63;1.50;;;12.30;99.90;;;;;;5013736;28;20034;-87
2022/10/05 02:35:26;;;;;;;1.10;1.00;;;12.30;99.90;;;;;;5013533;28;20032;-86
2022/10/05 02:38:02;;;;;;;2.25;1.23;;;12.40;99.90;;;;;;5013418;28;20034;-86
2022/10/05 02:40:43;;;;;;;1.40;1.20;;;12.60;99.90;;;;;;5013311;28;20192;-87
2022/10/05 02:43:23;;;;;;;1.10;1.00;;;12.60;99.90;;;;;;5013219;28;20076;-87
2022/10/05 02:46:16;;;;;;;1.25;1.23;;;12.60;99.90;;;;;;5013652;28;20053;-87
2022/10/05 02:48:42;;;;;;;1.48;1.38;;;12.50;99.90;;;;;;5013228;28;20506;-86
2022/10/05 02:51:22;;;;;;;1.27;1.17;;;12.40;99.90;;;;;;5013547;28;20026;-86
2022/10/05 02:53:54;;;;;;;0.90;0.90;;;12.40;99.90;;;;;;5013105;28;20258;-86
2022/10/05 02:56:38;;;;;;;;;;;12.40;99.90;;;;;;5013655;28;20099;-86
2022/10/05 02:59:28;;;;;;;1.13;1.02;;;12.50;99.90;;;;;;5013438;28;19905;-86
2022/10/05 03:02:02;;;;;;;1.42;1.33;;;12.30;99.90;;;;;;5013468;28;20046;-86
2022/10/05 03:04:37;;;;;;;1.88;1.10;;;12.30;99.90;;;;;;5013368;28;20022;-86
2022/10/05 03:07:15;;;;;;;1.27;1.17;;;12.40;99.90;;;;;;5000714;28;20026;-86
2022/10/05 03:10:07;;;;;;;1.92;1.23;;;12.50;99.90;;;;;;5013104;28;20021;-86
2022/10/05 03:12:32;;;;;;;;;;;12.50;99.90;;;;;;5010075;28;20030;-86
2022/10/05 03:15:17;;;;;;;2.10;0.95;;;12.50;99.90;;;;;;5012929;28;19906;-86
2022/10/05 03:17:57;;;;;;;1.20;1.10;;;12.50;99.90;;;;;;5012952;28;20026;-87
2022/10/05 03:20:42;;;;;;;0.90;0.90;;;12.40;99.90;;;;;;5013175;28;20049;-86
2022/10/05 03:23:36;;;;;;;1.00;0.90;;;12.40;99.90;;;;;;4993899;28;20046;-87
2022/10/05 03:26:12;;;;;;;1.05;0.98;;;12.40;99.90;;;;;;5009278;28;20057;-86
2022/10/05 03:29:15;;;;;;;1.40;1.23;;;12.50;99.90;;;;;;5012501;28;20026;-87
2022/10/05 03:31:53;;;;;;;0.77;0.77;;;12.40;99.90;;;;;;5015157;28;20217;-87
2022/10/05 03:34:28;;;;;;;1.13;1.02;;;12.40;99.90;;;;;;5010889;28;20026;-87
2022/10/05 03:37:32;;;;;;;1.02;1.02;;;12.30;99.90;;;;;;5012631;28;20117;-86
2022/10/05 03:40:35;;;;;;;1.05;1.02;;;12.30;99.90;;;;;;5012333;28;20541;-87
2022/10/05 03:43:04;;;;;;;2.15;1.08;;;12.30;99.90;;;;;;5012428;28;20049;-86
2022/10/05 03:45:47;;;;;;;1.98;1.15;;;12.20;99.90;;;;;;5012445;28;20030;-86
2022/10/05 03:48:35;;;;;;;1.27;1.00;;;12.40;99.90;;;;;;5012153;28;20022;-87
2022/10/05 03:51:07;;;;;;;1.17;1.08;;;12.10;99.90;;;;;;5027676;28;20026;-86
2022/10/05 03:53:42;;;;;;;1.15;1.08;;;12.20;99.90;;;;;;5012690;28;20026;-86
2022/10/05 03:56:30;;;;;;;1.48;1.10;;;12.20;99.90;;;;;;5012080;28;20041;-86
2022/10/05 03:59:18;;;;;;;1.10;1.00;;;12.30;99.90;;;;;;4999091;28;20495;-87
2022/10/05 04:02:10;;;;;;;0.85;0.75;;;12.30;99.90;;;;;;5011343;28;20046;-86
2022/10/05 04:04:41;;;;;;;1.17;1.08;;;12.30;99.90;;;;;;5029273;28;20506;-86
2022/10/05 04:07:17;;;;;;;1.00;0.90;;;12.10;99.90;;;;;;5028821;28;20041;-86
2022/10/05 04:09:46;;;;;;;1.10;1.02;;;12.10;99.90;;;;;;5029306;28;20034;-86
2022/10/05 04:12:29;;;;;;;1.30;1.20;;;12.20;99.90;;;;;;5029350;28;20179;-85
2022/10/05 04:15:03;;;;;;;0.95;0.95;;;12.00;99.90;;;;;;5029461;28;20037;-86
2022/10/05 04:17:39;;;;;;;1.05;1.00;;;12.00;99.90;;;;;;5029067;28;20116;-86
2022/10/05 04:20:30;;;;;;;1.48;1.20;;;12.00;99.90;;;;;;5029703;28;20092;-86
2022/10/05 04:23:01;;;;;;;1.08;0.85;;;12.00;99.90;;;;;;5029225;28;20045;-86
2022/10/05 04:25:34;;;;;;;;;;;12.00;99.90;;;;;;5029450;28;20029;-86
2022/10/05 04:28:34;;;;;;;0.90;0.90;;;11.90;99.90;;;;;;5016092;28;20067;-87
2022/10/05 04:31:03;;;;;;;1.20;1.10;;;12.00;99.90;;;;;;5019125;28;20192;-87
2022/10/05 04:33:30;;;;;;;1.10;1.00;;;12.00;99.90;;;;;;5029465;28;20025;-87
2022/10/05 04:35:56;;;;;;;1.05;0.95;;;12.00;99.90;;;;;;5012423;28;20060;-86
2022/10/05 04:38:34;;;;;;;2.38;1.10;;;11.90;99.90;;;;;;5029212;28;20025;-87
2022/10/05 04:41:26;;;;;;;0.88;0.88;;;11.90;99.90;;;;;;5023246;28;20045;-87
2022/10/05 04:43:54;;;;;;;1.40;0.90;;;12.00;99.90;;;;;;5011742;28;20565;-88
2022/10/05 04:46:29;;;;;;;1.08;1.00;;;12.00;99.90;;;;;;5016523;28;20099;-88
2022/10/05 04:49:10;;;;;;;1.73;1.10;;;12.10;99.90;;;;;;5011940;28;20026;-88
2022/10/05 04:52:11;;;;;;;1.00;0.95;;;12.00;99.90;;;;;;5011738;28;20032;-88
2022/10/05 04:54:58;;;;;;;1.23;0.93;;;11.90;99.90;;;;;;4989750;28;20034;-88
2022/10/05 04:57:47;;;;;;;1.10;1.10;;;11.90;99.90;;;;;;4973251;28;20061;-88
2022/10/05 05:00:24;;;;;;;0.98;0.98;;;11.90;99.90;;;;;;4989791;28;20030;-88
2022/10/05 05:03:28;;;;;;;1.20;1.10;;;11.90;99.90;;;;;;4989471;28;20526;-88
2022/10/05 05:06:17;;;;;;;1.20;1.10;;;11.90;99.90;;;;;;4989814;28;20027;-88
2022/10/05 05:08:52;;;;;;;1.38;1.00;;;11.80;99.90;;;;;;4978453;28;20030;-87
2022/10/05 05:11:23;;;;;;;0.98;0.90;;;11.70;99.90;;;;;;4989288;28;20042;-88
2022/10/05 05:13:57;;;;;;;1.10;1.00;;;11.70;99.90;;;;;;4982716;28;20049;-87
2022/10/05 05:16:33;;;;;;;1.05;0.90;;;11.80;99.90;;;;;;4989404;28;20109;-87
2022/10/05 05:19:16;;;;;;;1.10;0.90;;;11.70;99.90;;;;;;4989016;28;20049;-87
2022/10/05 05:22:05;;;;;;;0.88;0.88;;;11.70;99.90;;;;;;4988991;28;20061;-87
2022/10/05 05:24:42;;;;;;;0.95;0.95;;;11.70;99.90;;;;;;4989091;28;20035;-87
2022/10/05 05:27:26;;;;;;;1.00;0.90;;;11.70;99.90;;;;;;4989549;28;20113;-88
2022/10/05 05:30:21;;;;;;;1.10;1.00;;;11.50;99.90;;;;;;4977689;28;20118;-87
2022/10/05 05:33:14;;;;;;;1.77;1.48;;;11.50;99.90;;;;;;4997172;28;20042;-87
2022/10/05 05:35:58;;;;;;;1.08;1.05;;;11.50;99.90;;;;;;5011588;28;20026;-87
2022/10/05 05:38:36;;;;;;;1.42;1.20;;;11.60;99.90;;;;;;5017983;28;20034;-87
2022/10/05 05:41:05;;;;;;;0.82;0.82;;;11.60;99.90;;;;;;4997306;28;20030;-87
2022/10/05 05:43:43;;;;;;;0.90;0.90;;;11.60;99.90;;;;;;5011001;28;20033;-87
2022/10/05 05:46:14;;;;;;;1.38;1.10;;;11.50;99.90;;;;;;5010974;28;20018;-87
2022/10/05 05:48:44;;;;;;;;;;;11.60;99.90;;;;;;5011328;28;20061;-87
2022/10/05 05:51:19;;;;;;;1.70;1.10;;;11.50;99.90;;;;;;5012009;28;19906;-88
2022/10/05 05:53:49;;;;;;;1.40;1.10;;;11.40;99.90;;;;;;5010122;28;20018;-88
2022/10/05 05:56:33;;;;;;;1.80;1.27;;;11.20;99.90;;;;;;5011838;28;20045;-88
2022/10/05 05:59:24;;;;;;;1.50;1.40;;;11.10;99.90;;;;;;5009589;28;20048;-87
2022/10/05 06:01:55;;;;;;;2.38;1.20;;;11.20;99.90;;;;;;5009831;28;20029;-87
2022/10/05 06:04:38;;;;;;;1.73;1.23;;;11.40;99.90;;;;;;5011666;28;20030;-87
2022/10/05 06:07:05;;;;;;;1.30;1.20;;;11.30;99.90;;;;;;5000222;28;20067;-88
2022/10/05 06:09:49;;;;;;;1.35;1.10;;;11.40;99.90;;;;;;5027570;28;20033;-87
2022/10/05 06:12:31;;;;;;;1.38;1.10;;;11.50;99.90;;;;;;5012689;28;20022;-89
2022/10/05 06:15:04;;;;;;;1.23;0.90;;;11.60;99.90;;;;;;5024348;28;20064;-88
2022/10/05 06:17:47;;;;;;;1.40;1.10;;;11.70;99.90;;;;;;5016353;28;20030;-86
2022/10/05 06:20:38;;;;;;;1.67;1.23;;;11.70;99.90;;;;;;5011982;28;20030;-88
2022/10/05 06:23:12;;;;;;;1.50;1.40;;;11.70;99.90;;;;;;5012671;28;20101;-88
2022/10/05 06:25:40;;;;;;;1.85;1.60;;;11.50;99.90;;;;;;5027336;28;20041;-88
2022/10/05 06:28:11;;;;;;;2.70;1.58;;;11.40;99.90;;;;;;5024160;28;20126;-88
2022/10/05 06:30:47;;;;;;;2.43;2.10;;;11.50;99.90;;;;;;5014490;28;20029;-87
2022/10/05 06:33:27;;;;;;;2.92;2.33;;;11.60;99.90;;;;;;5009012;28;20266;-87
2022/10/05 06:36:16;;;;;;;2.13;1.93;;;11.50;99.90;;;;;;5014402;28;20022;-84
2022/10/05 06:38:47;;;;;;;2.25;1.80;;;11.70;99.90;;;;;;5008921;28;20018;-88
2022/10/05 06:41:32;;;;;;;;;;;12.00;99.90;;;;;;5014635;28;20038;-88
2022/10/05 06:44:05;;;;;;;2.85;1.58;;;12.00;99.90;;;;;;5015243;28;19945;-87
2022/10/05 06:46:34;;;;;;;2.03;1.70;;;12.00;99.90;;;;;;5018864;28;20038;-88
2022/10/05 06:49:42;;;;;;;1.90;1.80;;;12.20;99.90;;;;;;5014920;28;20108;-88
2022/10/05 06:52:28;;;;;;;2.17;1.70;;;12.50;99.90;;;;;;5014759;28;20030;-88
2022/10/05 06:55:14;;;;;;;2.92;1.83;;;12.40;99.90;;;;;;5010091;28;20061;-87
2022/10/05 06:57:43;;;;;;;2.08;1.63;;;12.70;99.90;;;;;;5002331;28;20033;-90
2022/10/05 07:00:23;;;;;;;2.00;1.60;;;12.90;99.90;;;;;;5021898;28;20026;-89
2022/10/05 07:02:49;;;;;;;1.57;1.47;;;13.00;99.90;;;;;;5016251;28;20021;-88
2022/10/05 07:05:30;;;;;;;1.50;1.40;;;13.20;99.90;;;;;;5025275;28;20033;-89
2022/10/05 07:08:11;;;;;;;2.58;1.95;;;13.60;99.90;;;;;;5020450;28;20184;-89
2022/10/05 07:10:56;;;;;;;1.80;1.63;;;13.60;99.90;;;;;;5011651;28;20060;-89
2022/10/05 07:13:55;;;;;;;2.55;1.88;;;14.10;99.90;;;;;;5019979;28;20049;-89
2022/10/05 07:16:50;;;;;;;2.60;1.90;;;13.90;99.90;;;;;;5015376;28;20060;-87
2022/10/05 07:19:39;;;;;;;3.85;2.78;;;13.90;99.90;;;;;;5008544;28;20018;-79
2022/10/05 07:22:35;;;;;;;3.50;2.72;;;14.00;99.90;;;;;;5011624;28;20064;-80
2022/10/05 07:25:26;;;;;;;4.90;3.08;;;14.00;99.90;;;;;;5012292;28;20504;-79
2022/10/05 07:28:05;;;;;;;3.83;2.35;;;14.00;99.90;;;;;;5012228;28;20026;-79
2022/10/05 07:30:46;;;;;;;3.53;2.28;;;14.10;99.90;;;;;;5012392;28;20029;-79
2022/10/05 07:33:19;;;;;;;4.65;2.42;;;14.30;99.90;;;;;;5012377;28;20037;-79
2022/10/05 07:39:19;;;;;;;3.03;2.45;;;14.60;99.90;;;;;;4989829;28;20475;-80
2022/10/05 07:41:53;;;;;;;2.70;2.33;;;15.50;99.90;;;;;;4990280;28;20069;-80
2022/10/05 07:44:40;;;;;;;3.30;2.47;;;15.70;99.90;;;;;;4977683;28;20026;-79
2022/10/05 07:47:22;;;;;;;3.15;2.60;;;16.10;99.90;;;;;;4970514;28;20422;-79
2022/10/05 07:49:58;;;;;;;3.90;2.35;;;16.30;99.90;;;;;;4989889;28;20547;-79
2022/10/05 07:52:26;;;;;;;2.47;2.28;;;16.50;99.90;;;;;;4978138;28;20030;-80
2022/10/05 07:55:00;;;;;;;2.75;2.40;;;16.70;99.90;;;;;;4990098;28;20038;-79
2022/10/05 07:57:38;;;;;;;2.60;2.40;;;16.90;99.90;;;;;;4990134;28;20034;-79
2022/10/05 08:00:19;;;;;;;2.65;2.45;;;17.00;99.90;;;;;;4989030;28;20040;-79
2022/10/05 08:02:54;;;;;;;2.25;2.15;;;17.60;99.90;;;;;;4989802;28;20567;-79
2022/10/05 08:05:25;;;;;;;2.85;2.53;;;17.40;99.90;;;;;;4960480;28;20670;-79
2022/10/05 08:07:55;;;;;;;;;;;17.90;99.90;;;;;;4989896;28;20212;-79
2022/10/05 08:11:09;;;;;;;2.80;2.55;;;17.80;99.90;;;;;;4988952;28;19947;-79
2022/10/05 08:13:41;;;;;;;3.45;2.85;;;17.50;99.90;;;;;;4967543;28;20526;-79
2022/10/05 08:16:14;;;;;;;2.85;2.63;;;17.70;99.90;;;;;;5009902;28;20500;-80
2022/10/05 08:18:58;;;;;;;3.30;2.72;;;17.40;99.90;;;;;;5011643;28;20030;-80
2022/10/05 08:21:50;;;;;;;3.78;3.35;;;17.30;99.90;;;;;;5010892;28;20133;-79
2022/10/05 08:24:35;;;;;;;3.88;2.90;;;18.10;99.90;;;;;;5011471;28;20034;-80
2022/10/05 08:27:13;;;;;;;3.63;3.22;;;18.40;99.90;;;;;;5011397;28;20025;-80
2022/10/05 08:29:50;;;;;;;3.58;3.28;;;18.30;99.90;;;;;;5004484;28;20021;-79
2022/10/05 08:32:34;;;;;;;3.30;3.00;;;19.60;99.90;;;;;;5010515;28;20040;-79
2022/10/05 08:35:00;;;;;;;3.40;3.00;;;19.20;99.90;;;;;;5011216;28;20033;-79
2022/10/05 08:37:31;;;;;;;2.67;2.42;;;19.20;99.90;;;;;;5026906;28;20026;-79
2022/10/05 08:40:21;;;;;;;3.20;3.00;;;19.00;99.90;;;;;;5010966;28;20068;-79
2022/10/05 08:42:52;;;;;;;3.45;3.15;;;19.30;99.90;;;;;;4998151;28;20030;-79
2022/10/05 08:45:39;;;;;;;3.85;3.03;;;19.70;99.90;;;;;;5011102;28;20030;-79
2022/10/05 08:48:29;;;;;;;4.40;2.85;;;20.20;99.90;;;;;;5026265;28;20034;-79
2022/10/05 08:51:17;;;;;;;2.92;2.65;;;20.20;99.90;;;;;;4998419;28;20025;-79
2022/10/05 08:53:51;;;;;;;3.25;2.92;;;19.80;99.90;;;;;;5010549;28;20030;-79
2022/10/05 08:56:52;;;;;;;2.80;2.60;;;19.90;99.90;;;;;;5011349;28;20018;-79
2022/10/05 08:59:20;;;;;;;3.13;2.92;;;20.20;99.90;;;;;;5001955;28;20479;-78
2022/10/05 09:02:11;;;;;;;2.80;2.35;;;20.50;99.90;;;;;;5010177;28;20037;-78
2022/10/05 09:04:53;;;;;;;3.07;2.80;;;20.20;99.90;;;;;;5024796;28;20034;-79
2022/10/05 09:07:37;;;;;;;2.47;2.28;;;20.40;99.90;;;;;;5010886;28;20104;-78
2022/10/05 09:10:27;;;;;;;3.35;2.78;;;20.10;99.90;;;;;;5010864;28;20504;-78
2022/10/05 09:13:21;;;;;;;3.15;2.65;;;20.10;99.90;;;;;;5010497;28;20033;-78
2022/10/05 09:16:05;;;;;;;2.83;2.50;;;20.10;99.90;;;;;;5003441;28;20076;-78
2022/10/05 09:18:41;;;;;;;3.97;2.80;;;20.20;99.90;;;;;;4999482;28;20104;-78
2022/10/05 09:21:35;;;;;;;2.85;2.65;;;20.30;99.90;;;;;;5010165;28;20042;-78
2022/10/05 09:24:47;;;;;;;2.33;2.13;;;20.80;99.90;;;;;;5010893;28;20029;-78
2022/10/05 09:27:16;;;;;;;3.15;2.60;;;20.90;99.90;;;;;;4988235;28;20073;-78
2022/10/05 09:30:09;;;;;;;2.80;2.40;;;21.20;99.90;;;;;;4988296;28;20660;-78
2022/10/05 09:32:53;;;;;;;3.45;2.60;;;21.50;99.90;;;;;;4988404;28;20057;-78
2022/10/05 09:35:57;;;;;;;3.55;2.30;;;21.50;99.90;;;;;;4977634;28;20073;-78
2022/10/05 09:38:31;;;;;;;2.38;2.20;;;21.70;99.90;;;;;;4988838;28;20026;-77
2022/10/05 09:41:30;;;;;;;2.85;2.65;;;21.80;99.90;;;;;;4984880;28;20069;-78
2022/10/05 09:44:26;;;;;;;2.60;2.40;;;22.00;99.90;;;;;;4971585;28;20075;-79
2022/10/05 09:47:16;;;;;;;2.65;2.45;;;22.20;99.90;;;;;;4987803;28;20022;-78
2022/10/05 09:50:09;;;;;;;2.47;2.00;;;22.10;99.90;;;;;;4979427;28;20023;-79
2022/10/05 09:53:10;;;;;;;4.53;2.40;;;22.10;99.90;;;;;;4987861;28;20043;-78
2022/10/05 09:55:50;;;;;;;4.15;2.70;;;22.10;99.90;;;;;;4975712;28;20050;-78
2022/10/05 09:58:38;;;;;;;4.93;2.47;;;22.20;99.90;;;;;;4988017;28;20038;-78
2022/10/05 10:01:09;;;;;;;2.42;2.03;;;22.20;99.90;;;;;;4960991;28;20030;-78
2022/10/05 10:03:44;;;;;;;2.00;1.90;;;22.30;99.90;;;;;;4969651;28;20066;-78
2022/10/05 10:06:29;;;;;;;4.68;2.60;;;22.60;99.90;;;;;;4955639;28;20030;-78
2022/10/05 10:09:20;;;;;;;2.80;2.53;;;22.10;99.90;;;;;;4962581;28;20078;-78
2022/10/05 10:12:30;;;;;;;3.88;2.08;;;22.30;99.90;;;;;;4958992;28;20129;-78
2022/10/05 10:15:02;;;;;;;4.38;2.28;;;21.90;99.90;;;;;;4964121;28;20050;-78
2022/10/05 10:17:39;;;;;;;3.28;2.70;;;22.20;99.90;;;;;;4972230;28;20041;-78
2022/10/05 10:20:13;;;;;;;3.03;2.22;;;22.30;99.90;;;;;;4965017;28;20035;-78
2022/10/05 10:23:17;;;;;;;3.92;2.40;;;22.20;99.90;;;;;;4959374;28;20073;-78
2022/10/05 10:25:57;;;;;;;2.88;2.15;;;22.40;99.90;;;;;;4920985;29;20072;-78
2022/10/05 10:29:04;;;;;;;2.65;2.15;;;22.50;99.90;;;;;;4925382;29;20028;-78
2022/10/05 10:31:36;;;;;;;4.07;2.17;;;22.60;99.90;;;;;;4895722;29;20131;-79
2022/10/05 10:34:01;;;;;;;;;;;22.60;99.90;;;;;;4895477;29;20045;-78
2022/10/05 10:36:57;;;;;;;2.90;2.15;;;22.50;99.90;;;;;;4895599;29;19951;-78
2022/10/05 10:39:50;;;;;;;2.83;2.22;;;22.40;99.90;;;;;;4929398;29;20035;-79
2022/10/05 10:42:30;;;;;;;3.63;1.95;;;22.40;99.90;;;;;;4948916;28;20040;-78
2022/10/05 10:45:15;;;;;;;4.72;2.58;;;22.50;99.90;;;;;;4933579;29;20063;-79
2022/10/05 10:48:02;;;;;;;2.85;2.20;;;22.50;99.90;;;;;;4932958;29;20067;-79
2022/10/05 10:50:46;;;;;;;2.92;1.92;;;22.40;99.90;;;;;;4920501;29;20110;-79
2022/10/05 10:53:48;;;;;;;2.45;1.90;;;22.40;99.90;;;;;;4927126;29;20552;-79
2022/10/05 10:56:25;;;;;;;2.83;1.77;;;22.50;99.90;;;;;;4933145;29;20043;-79
2022/10/05 10:58:54;;;;;;;2.55;2.05;;;22.60;99.90;;;;;;4920531;29;20505;-79
2022/10/05 11:01:39;;;;;;;2.45;2.25;;;22.50;99.90;;;;;;4932385;29;20048;-78
2022/10/05 11:04:43;;;;;;;2.08;1.90;;;22.60;99.90;;;;;;4962404;28;20110;-78
2022/10/05 11:07:15;;;;;;;2.30;2.10;;;22.30;99.90;;;;;;4968010;28;20039;-78
2022/10/05 11:10:18;;;;;;;4.85;2.58;;;22.50;99.90;;;;;;5010953;28;20115;-78
2022/10/05 11:13:05;;;;;;;4.47;2.15;;;22.60;99.90;;;;;;5012190;28;20026;-79
2022/10/05 11:15:33;;;;;;;2.60;2.08;;;22.70;99.90;;;;;;5011815;28;20034;-78
2022/10/05 11:18:15;;;;;;;3.45;2.20;;;22.60;99.90;;;;;;5012277;28;20037;-78
2022/10/05 11:21:14;;;;;;;4.53;2.53;;;22.50;99.90;;;;;;5012216;28;20046;-79
2022/10/05 11:24:08;;;;;;;2.42;2.00;;;22.80;99.90;;;;;;5007330;28;20045;-79
2022/10/05 11:26:36;;;;;;;3.47;1.80;;;22.80;99.90;;;;;;5001584;28;20089;-79
2022/10/05 11:29:17;;;;;;;4.45;2.38;;;22.70;99.90;;;;;;5006962;28;20024;-79
2022/10/05 11:32:01;;;;;;;1.92;1.70;;;22.80;99.90;;;;;;5012381;28;20077;-79
2022/10/05 11:34:35;;;;;;;3.05;1.70;;;22.80;99.90;;;;;;5012129;28;20025;-79
2022/10/05 11:37:11;;;;;;;2.33;2.00;;;22.70;99.90;;;;;;5011861;28;20053;-79
2022/10/05 11:39:54;;;;;;;2.05;1.77;;;22.50;99.90;;;;;;5012345;28;20105;-79
2022/10/05 11:42:23;;;;;;;3.38;2.45;;;22.80;99.90;;;;;;5011719;28;20037;-79
2022/10/05 11:45:17;;;;;;;3.22;1.85;;;22.70;99.90;;;;;;5027382;28;20021;-79
2022/10/05 11:48:19;;;;;;;2.22;1.98;;;22.70;99.90;;;;;;5011680;28;20048;-79
2022/10/05 11:50:47;;;;;;;2.30;1.80;;;22.50;99.90;;;;;;4989673;28;20030;-79
2022/10/05 11:53:26;;;;;;;3.83;2.22;;;22.50;99.90;;;;;;4989302;28;20042;-79
2022/10/05 11:56:33;;;;;;;2.40;2.20;;;22.60;99.90;;;;;;4989178;28;20061;-79
2022/10/05 11:59:14;;;;;;;3.03;2.00;;;22.80;99.90;;;;;;4978494;28;20034;-79
2022/10/05 12:02:12;;;;;;;4.80;2.28;;;22.90;99.90;;;;;;4973735;28;20034;-78
2022/10/05 12:04:56;;;;;;;4.38;2.33;;;23.00;99.90;;;;;;4989929;28;20030;-79
2022/10/05 12:07:49;;;;;;;2.20;2.03;;;23.20;99.90;;;;;;4973452;28;20026;-79
2022/10/05 12:10:31;;;;;;;4.78;2.20;;;23.10;99.90;;;;;;4990109;28;20014;-79
2022/10/05 12:13:06;;;;;;;2.78;2.05;;;23.00;99.90;;;;;;4973388;28;20026;-79
2022/10/05 12:15:53;;;;;;;2.85;2.05;;;22.80;99.90;;;;;;4989813;28;20038;-79
2022/10/05 12:18:31;;;;;;;3.38;2.17;;;23.00;99.90;;;;;;4977738;28;20026;-79
2022/10/05 12:21:06;;;;;;;3.58;2.20;;;23.00;99.90;;;;;;4989028;28;20050;-78
2022/10/05 12:23:59;;;;;;;1.85;1.60;;;23.10;99.90;;;;;;4989135;28;20026;-79
2022/10/05 12:26:46;;;;;;;1.75;1.65;;;23.20;99.90;;;;;;4988336;28;20122;-79
2022/10/05 12:29:25;;;;;;;2.28;1.77;;;23.10;99.90;;;;;;5011103;28;20034;-78
2022/10/05 12:31:57;;;;;;;4.15;2.10;;;23.40;99.90;;;;;;5010644;28;20060;-78
2022/10/05 12:34:37;;;;;;;2.45;1.50;;;23.20;99.90;;;;;;5011711;28;20081;-79
2022/10/05 12:37:45;;;;;;;2.75;2.17;;;23.10;99.90;;;;;;5010495;28;20026;-79
2022/10/05 12:40:33;;;;;;;2.65;1.85;;;22.90;99.90;;;;;;5028573;28;20403;-79
2022/10/05 12:43:22;;;;;;;1.90;1.40;;;23.20;99.90;;;;;;4998026;28;20046;-79
2022/10/05 12:45:59;;;;;;;5.38;1.83;;;23.20;99.90;;;;;;4961317;28;20114;-79
2022/10/05 12:48:56;;;;;;;1.98;1.52;;;23.20;99.90;;;;;;4969439;28;20045;-79
2022/10/05 12:51:33;;;;;;;3.17;2.00;;;23.20;99.90;;;;;;4969227;28;20061;-79
2022/10/05 12:54:11;;;;;;;3.65;1.90;;;23.40;99.90;;;;;;4969295;28;20043;-79
2022/10/05 12:56:53;;;;;;;3.00;1.85;;;23.10;99.90;;;;;;4968982;28;20043;-79
2022/10/05 12:59:19;;;;;;;3.67;1.85;;;23.20;99.90;;;;;;4969147;28;20504;-79
2022/10/05 13:02:01;;;;;;;2.67;1.85;;;23.00;99.90;;;;;;4968787;28;20045;-79
2022/10/05 13:04:57;;;;;;;2.20;1.60;;;22.90;99.90;;;;;;4969046;28;20043;-79
2022/10/05 13:07:35;;;;;;;2.92;1.80;;;23.00;99.90;;;;;;4968580;28;20049;-79
2022/10/05 13:10:12;;;;;;;9.25;2.35;;;23.10;99.90;;;;;;4968765;28;20121;-79
2022/10/05 13:12:56;;;;;;;2.47;1.88;;;23.30;99.90;;;;;;4967893;28;20027;-79
2022/10/05 13:15:26;;;;;;;3.45;1.90;;;23.40;99.90;;;;;;4921285;28;20155;-79
2022/10/05 13:18:16;;;;;;;3.70;1.80;;;23.40;99.90;;;;;;4930188;29;20129;-79
2022/10/05 13:20:54;;;;;;;4.03;1.65;;;23.30;99.90;;;;;;4927080;29;20054;-79
2022/10/05 13:23:42;;;;;;;3.55;1.92;;;23.10;99.90;;;;;;4986405;28;20049;-79
2022/10/05 13:26:34;;;;;;;2.42;1.48;;;23.20;99.90;;;;;;5009999;28;20022;-79
2022/10/05 13:29:33;;;;;;;2.67;2.00;;;23.00;99.90;;;;;;5008916;28;20034;-79
2022/10/05 13:32:05;;;;;;;2.88;1.63;;;23.10;99.90;;;;;;5010551;28;20052;-79
2022/10/05 13:34:44;;;;;;;2.88;1.85;;;23.00;99.90;;;;;;5010449;28;20081;-78
2022/10/05 13:37:25;;;;;;;3.85;1.60;;;23.20;99.90;;;;;;5025259;28;20080;-79
2022/10/05 13:40:13;;;;;;;2.47;1.52;;;23.40;99.90;;;;;;5013640;28;20034;-79
2022/10/05 13:43:04;;;;;;;2.00;1.60;;;23.30;99.90;;;;;;5001574;28;20034;-79
2022/10/05 13:45:48;;;;;;;2.25;1.38;;;23.20;99.90;;;;;;5014248;28;20033;-79
2022/10/05 13:48:38;;;;;;;1.70;1.60;;;23.30;99.90;;;;;;5014670;28;20033;-79
2022/10/05 13:51:13;;;;;;;1.85;1.73;;;23.30;99.90;;;;;;5013480;28;20044;-79
2022/10/05 13:53:57;;;;;;;2.05;1.60;;;23.40;99.90;;;;;;5014215;28;20022;-79
2022/10/05 13:56:32;;;;;;;2.60;1.80;;;23.30;99.90;;;;;;5014401;28;20091;-79
2022/10/05 13:59:23;;;;;;;1.92;1.60;;;23.30;99.90;;;;;;5013276;28;20026;-79
2022/10/05 14:01:55;;;;;;;1.92;1.40;;;23.30;99.90;;;;;;5012738;28;20037;-79
2022/10/05 14:04:26;;;;;;;3.13;1.50;;;23.30;99.90;;;;;;5013634;28;20025;-79